Time;durP1;ratioP1;P1;durP2;ratioP2;P2;SDS_P1;SDS_P2;PMS_P1;PMS_P2;Temp;Humidity;BMP_temperature;BMP_pressure;BME280_temperature;BME280_humidity;BME280_pressure;Samples;Min_cycle;Max_cycle;Signal;HPM_P1;HPM_P2
2023/12/13 00:01:26;;;;;;;6.60;4.20;;;;;;;25.16;37.63;98062.81;4993274;28;20014;-43
2023/12/13 00:03:52;;;;;;;6.40;4.05;;;;;;;25.13;37.64;98048.06;4991999;28;20065;-43
2023/12/13 00:06:18;;;;;;;5.65;3.65;;;;;;;25.14;37.83;98048.81;4988817;28;20069;-43
2023/12/13 00:08:43;;;;;;;5.70;3.65;;;;;;;25.15;37.73;98047.53;4989788;28;20029;-45
2023/12/13 00:11:08;;;;;;;6.43;3.80;;;;;;;25.14;37.65;98037.75;4992719;28;20103;-43
2023/12/13 00:13:34;;;;;;;5.93;3.70;;;;;;;25.11;37.69;98027.78;4996723;28;20018;-44
2023/12/13 00:16:01;;;;;;;5.45;3.35;;;;;;;25.14;37.59;98035.00;4998344;28;20026;-44
2023/12/13 00:18:26;;;;;;;5.97;3.90;;;;;;;25.12;37.53;98035.53;4996939;28;20026;-43
2023/12/13 00:20:52;;;;;;;5.68;3.60;;;;;;;25.12;37.52;98029.28;4989947;28;20037;-48
2023/12/13 00:23:17;;;;;;;5.75;3.47;;;;;;;25.15;37.68;98028.22;4994688;28;20488;-44
2023/12/13 00:25:43;;;;;;;6.28;3.40;;;;;;;25.14;37.41;98018.44;4991757;28;20026;-43
2023/12/13 00:28:08;;;;;;;6.20;3.40;;;;;;;25.13;37.65;98020.47;4991784;28;20097;-43
2023/12/13 00:30:33;;;;;;;5.47;3.40;;;;;;;25.14;37.60;98015.69;4986572;28;20026;-46
2023/12/13 00:32:59;;;;;;;5.60;3.15;;;;;;;25.13;37.34;98014.94;4986420;28;20072;-43
2023/12/13 00:35:24;;;;;;;5.45;3.38;;;;;;;25.12;37.67;98007.19;4995589;28;20029;-44
2023/12/13 00:37:49;;;;;;;5.40;3.10;;;;;;;25.14;37.41;98004.63;4996303;28;20404;-43
2023/12/13 00:40:15;;;;;;;5.45;3.10;;;;;;;25.11;37.48;98002.94;4991143;28;20072;-43
2023/12/13 00:42:40;;;;;;;5.10;3.00;;;;;;;25.10;37.41;97999.44;4981563;28;20026;-46
2023/12/13 00:45:06;;;;;;;5.35;2.78;;;;;;;25.12;37.65;97998.91;4981541;28;20027;-43
2023/12/13 00:47:31;;;;;;;4.80;2.80;;;;;;;25.10;37.53;97993.91;4988930;28;20032;-43
2023/12/13 00:49:57;;;;;;;5.07;2.67;;;;;;;25.11;37.52;98000.91;4993659;28;20083;-43
2023/12/13 00:52:23;;;;;;;5.53;3.00;;;;;;;25.12;37.48;98007.19;4992770;28;20642;-46
2023/12/13 00:54:48;;;;;;;5.05;2.70;;;;;;;25.11;37.68;98011.22;4989996;28;20039;-44
2023/12/13 00:57:13;;;;;;;4.88;2.58;;;;;;;25.10;37.38;97998.69;4987937;28;20053;-43
2023/12/13 00:59:39;;;;;;;4.90;2.60;;;;;;;25.07;37.48;97997.75;4985813;28;20027;-50
2023/12/13 01:02:06;;;;;;;5.20;2.92;;;;;;;25.11;37.56;97994.66;4994758;28;20404;-43
2023/12/13 01:04:34;;;;;;;4.82;2.50;;;;;;;25.11;37.36;98006.44;4994657;28;20025;-44
2023/12/13 01:06:59;;;;;;;4.72;2.65;;;;;;;25.06;37.41;97999.75;4988984;28;20467;-44
2023/12/13 01:09:26;;;;;;;4.72;2.53;;;;;;;25.05;37.65;97995.50;4987196;28;20101;-48
2023/12/13 01:11:52;;;;;;;4.38;2.33;;;;;;;25.06;37.46;97994.22;4988118;28;20026;-53
2023/12/13 01:14:17;;;;;;;4.70;2.50;;;;;;;25.05;37.72;98001.03;4986362;28;20080;-49
2023/12/13 01:16:42;;;;;;;4.57;2.38;;;;;;;25.04;37.68;97996.03;4991301;28;20026;-43
2023/12/13 01:19:08;;;;;;;5.38;2.75;;;;;;;25.06;37.44;98004.53;4994304;28;20044;-46
2023/12/13 01:21:33;;;;;;;4.65;2.45;;;;;;;25.06;37.64;97999.00;4987759;28;20474;-46
2023/12/13 01:24:00;;;;;;;4.60;2.40;;;;;;;25.05;37.55;98000.28;4986691;28;20030;-45
2023/12/13 01:26:25;;;;;;;4.60;2.40;;;;;;;25.03;37.89;98009.09;4990342;28;20103;-46
2023/12/13 01:28:51;;;;;;;4.93;2.67;;;;;;;25.04;37.57;98007.81;4988909;28;20026;-43
2023/12/13 01:31:17;;;;;;;4.55;2.20;;;;;;;25.05;37.69;98014.09;4995918;28;20014;-45
2023/12/13 01:33:42;;;;;;;4.32;2.10;;;;;;;25.03;37.60;98008.34;4988509;28;20045;-44
2023/12/13 01:36:08;;;;;;;4.22;2.00;;;;;;;25.03;37.44;98014.63;4987723;28;20031;-46
2023/12/13 01:38:33;;;;;;;4.10;2.00;;;;;;;25.04;37.62;98018.13;4990554;28;20018;-44
2023/12/13 01:40:59;;;;;;;4.53;2.30;;;;;;;25.02;37.38;98007.59;4990720;28;20039;-43
2023/12/13 01:43:24;;;;;;;4.15;2.17;;;;;;;25.03;37.44;98016.63;4997525;28;20026;-48
2023/12/13 01:45:52;;;;;;;4.90;2.08;;;;;;;24.99;37.65;98005.91;4988686;28;20026;-43
2023/12/13 01:48:18;;;;;;;4.20;2.00;;;;;;;25.01;37.42;98008.13;4986914;28;20183;-43
2023/12/13 01:50:43;;;;;;;3.90;1.90;;;;;;;25.00;37.50;98010.16;4994742;28;20544;-44
2023/12/13 01:53:10;;;;;;;4.50;2.20;;;;;;;25.00;37.46;98001.88;4996494;28;20029;-45
2023/12/13 01:55:35;;;;;;;4.82;2.10;;;;;;;25.01;37.73;97997.09;4993893;28;20040;-43
2023/12/13 01:58:02;;;;;;;4.40;2.03;;;;;;;25.00;37.45;97995.63;4989101;28;20026;-47
2023/12/13 02:00:27;;;;;;;3.85;1.95;;;;;;;25.01;37.63;97992.31;4988981;28;20038;-43
2023/12/13 02:02:53;;;;;;;4.03;1.95;;;;;;;25.03;37.50;97989.78;4989968;28;20035;-46
2023/12/13 02:05:18;;;;;;;3.88;1.80;;;;;;;25.02;37.47;97993.81;4988866;28;20440;-43
2023/12/13 02:07:43;;;;;;;4.20;2.08;;;;;;;25.04;37.46;97988.50;4973341;28;20033;-43
2023/12/13 02:10:10;;;;;;;3.97;1.80;;;;;;;25.04;37.40;97980.22;4986987;28;20019;-47
2023/12/13 02:12:35;;;;;;;3.97;1.77;;;;;;;25.02;37.49;97982.03;4986293;28;20084;-47
2023/12/13 02:15:01;;;;;;;3.83;1.77;;;;;;;25.03;37.36;97973.22;4988844;28;20042;-50
2023/12/13 02:17:26;;;;;;;4.35;2.00;;;;;;;25.03;37.32;97956.66;4991139;28;20033;-43
2023/12/13 02:19:51;;;;;;;4.13;1.90;;;;;;;25.02;37.59;97957.19;4988235;28;20506;-44
2023/12/13 02:22:17;;;;;;;3.97;1.73;;;;;;;25.03;37.39;97955.91;4989397;28;20057;-43
2023/12/13 02:24:42;;;;;;;3.92;1.83;;;;;;;25.01;37.46;97953.69;4988365;28;20022;-44
2023/12/13 02:27:08;;;;;;;3.75;1.65;;;;;;;25.03;37.25;97951.13;4988494;28;20034;-45
2023/12/13 02:29:33;;;;;;;3.08;1.52;;;;;;;25.04;37.45;97949.13;4978818;28;20080;-44
2023/12/13 02:31:59;;;;;;;4.20;1.73;;;;;;;25.02;37.32;97959.94;4996513;28;20104;-44
2023/12/13 02:34:24;;;;;;;3.90;1.90;;;;;;;25.00;37.37;97963.22;4992722;28;20022;-44
2023/12/13 02:36:49;;;;;;;4.25;1.80;;;;;;;25.02;37.52;97966.22;4993554;28;20497;-43
2023/12/13 02:39:15;;;;;;;3.45;1.58;;;;;;;25.02;37.51;97974.50;4992855;28;20049;-43
2023/12/13 02:41:41;;;;;;;3.63;1.63;;;;;;;25.02;37.47;97965.47;4999712;28;20482;-43
2023/12/13 02:44:06;;;;;;;4.43;1.70;;;;;;;25.00;37.63;97968.75;4994641;28;21128;-44
2023/12/13 02:46:31;;;;;;;3.35;1.50;;;;;;;25.00;37.59;97962.50;4998387;28;20026;-43
2023/12/13 02:48:58;;;;;;;3.70;1.70;;;;;;;24.99;37.46;97944.44;4995536;28;20084;-44
2023/12/13 02:51:23;;;;;;;3.50;1.40;;;;;;;25.02;37.29;97944.13;4989430;28;20050;-44
2023/12/13 02:53:48;;;;;;;3.53;1.50;;;;;;;25.01;37.45;97948.16;4993232;28;20485;-45
2023/12/13 02:56:14;;;;;;;3.50;1.50;;;;;;;25.01;37.47;97942.63;4990850;28;20028;-43
2023/12/13 02:58:40;;;;;;;3.42;1.48;;;;;;;24.99;37.81;97945.19;4988842;28;20048;-43
2023/12/13 03:01:06;;;;;;;4.05;1.60;;;;;;;25.00;37.61;97941.16;4990377;28;20448;-43
2023/12/13 03:03:31;;;;;;;3.75;1.58;;;;;;;25.03;37.56;97929.03;4991589;28;20031;-43
2023/12/13 03:05:56;;;;;;;3.63;1.70;;;;;;;25.03;37.46;97926.28;4991447;28;20485;-47
2023/12/13 03:08:22;;;;;;;2.83;1.40;;;;;;;25.04;37.57;97925.00;4994832;28;20449;-43
2023/12/13 03:10:47;;;;;;;3.40;1.48;;;;;;;25.06;37.48;97927.97;4991563;28;20036;-47
2023/12/13 03:13:12;;;;;;;3.50;1.55;;;;;;;25.05;37.26;97920.22;4990755;28;20022;-43
2023/12/13 03:15:38;;;;;;;3.15;1.40;;;;;;;25.04;37.46;97918.75;4989770;28;20031;-45
2023/12/13 03:18:03;;;;;;;3.25;1.48;;;;;;;25.02;37.88;97916.53;4996145;28;20070;-44
2023/12/13 03:20:30;;;;;;;3.03;1.40;;;;;;;25.02;37.46;97908.25;4991330;28;20383;-44
2023/12/13 03:22:55;;;;;;;3.25;1.40;;;;;;;25.01;37.46;97911.53;4991424;28;20037;-43
2023/12/13 03:25:21;;;;;;;2.72;1.25;;;;;;;25.01;37.65;97915.03;4989365;28;20117;-43
2023/12/13 03:27:46;;;;;;;2.70;1.20;;;;;;;25.05;37.31;97900.91;4986102;28;20022;-43
2023/12/13 03:30:12;;;;;;;2.97;1.40;;;;;;;25.03;37.51;97909.72;4988766;28;20030;-44
2023/12/13 03:32:38;;;;;;;2.90;1.38;;;;;;;25.03;37.27;97889.66;4993516;28;20025;-47
2023/12/13 03:35:06;;;;;;;2.88;1.30;;;;;;;25.01;37.38;97894.97;4991886;28;20109;-45
2023/12/13 03:37:31;;;;;;;3.17;1.30;;;;;;;25.02;37.45;97888.91;4986459;28;20061;-43
2023/12/13 03:39:57;;;;;;;2.95;1.38;;;;;;;25.05;37.54;97887.84;4986004;28;20120;-43
2023/12/13 03:42:22;;;;;;;3.03;1.30;;;;;;;25.05;37.51;97893.38;4988355;28;20037;-47
2023/12/13 03:44:47;;;;;;;2.35;1.23;;;;;;;25.03;37.34;97889.66;4994873;28;20034;-43
2023/12/13 03:47:13;;;;;;;2.22;1.17;;;;;;;25.03;37.43;97882.13;4995826;28;20374;-43
2023/12/13 03:49:38;;;;;;;2.90;1.30;;;;;;;25.03;37.36;97890.41;4990115;28;20029;-48
2023/12/13 03:52:04;;;;;;;2.60;1.30;;;;;;;25.03;37.39;97884.88;4983293;28;20779;-44
2023/12/13 03:54:29;;;;;;;2.63;1.30;;;;;;;25.03;37.56;97890.41;4988271;28;20026;-44
2023/12/13 03:56:54;;;;;;;2.45;1.23;;;;;;;25.06;37.24;97896.88;4988986;28;20030;-45
2023/12/13 03:59:20;;;;;;;2.47;1.10;;;;;;;25.06;37.56;97894.13;4999110;28;20021;-45
2023/12/13 04:01:45;;;;;;;2.53;1.20;;;;;;;25.07;37.30;97895.59;4991282;28;20076;-43
2023/12/13 04:04:11;;;;;;;2.83;1.20;;;;;;;25.06;37.44;97888.59;4985798;28;20026;-48
2023/12/13 04:06:36;;;;;;;2.50;1.10;;;;;;;25.06;37.39;97881.06;4990413;28;20029;-43
2023/12/13 04:09:01;;;;;;;2.40;1.25;;;;;;;25.03;37.44;97879.34;4986890;28;20460;-45
2023/12/13 04:11:27;;;;;;;2.38;1.15;;;;;;;25.01;37.56;97873.63;4996112;28;20014;-43
2023/12/13 04:13:52;;;;;;;2.65;1.33;;;;;;;25.03;37.60;97878.63;4991971;28;20100;-44
2023/12/13 04:16:17;;;;;;;2.38;1.08;;;;;;;25.03;37.50;97881.38;4993113;28;20022;-43
2023/12/13 04:18:43;;;;;;;2.58;1.10;;;;;;;25.04;37.33;97880.84;4985193;28;20035;-43
2023/12/13 04:21:08;;;;;;;1.88;1.00;;;;;;;25.06;37.41;97875.53;4988504;28;20578;-44
2023/12/13 04:23:33;;;;;;;2.38;1.10;;;;;;;25.04;37.32;97875.31;4993992;28;20022;-44
2023/12/13 04:25:59;;;;;;;1.95;1.10;;;;;;;25.05;37.13;97884.34;4991681;28;20022;-43
2023/12/13 04:28:25;;;;;;;3.15;1.10;;;;;;;25.00;37.37;97883.19;4988871;28;20034;-43
2023/12/13 04:30:50;;;;;;;3.80;1.20;;;;;;;24.95;37.56;97878.56;4992072;28;20025;-44
2023/12/13 04:33:18;;;;;;;3.15;1.10;;;;;;;24.93;37.30;97878.31;4990162;28;20030;-46
2023/12/13 04:35:46;;;;;;;2.15;1.10;;;;;;;24.92;37.41;97879.59;4996574;28;20045;-46
2023/12/13 04:38:12;;;;;;;1.88;1.00;;;;;;;24.91;37.46;97878.09;4993169;28;20061;-45
2023/12/13 04:40:39;;;;;;;2.63;1.10;;;;;;;24.94;37.26;97885.34;4995753;28;20029;-43
2023/12/13 04:43:05;;;;;;;2.45;1.20;;;;;;;24.92;37.26;97879.59;4990719;28;20042;-43
2023/12/13 04:45:30;;;;;;;2.40;0.90;;;;;;;24.92;37.36;97874.06;4991003;28;20026;-44
2023/12/13 04:47:56;;;;;;;3.10;0.90;;;;;;;24.90;37.45;97873.13;4993518;28;20392;-43
2023/12/13 04:50:22;;;;;;;2.35;1.00;;;;;;;24.91;37.37;97878.09;4990059;28;20014;-46
2023/12/13 04:52:48;;;;;;;2.03;1.00;;;;;;;24.90;37.33;97867.59;4990204;28;20547;-44
2023/12/13 04:55:14;;;;;;;2.03;1.00;;;;;;;24.92;37.44;97863.03;4983628;28;21045;-43
2023/12/13 04:57:39;;;;;;;2.55;1.08;;;;;;;24.92;37.50;97865.78;4990876;28;20030;-43
2023/12/13 05:00:07;;;;;;;2.60;1.10;;;;;;;24.89;37.43;97858.56;4997767;28;20026;-44
2023/12/13 05:02:33;;;;;;;2.10;1.00;;;;;;;24.88;37.56;97840.53;4988112;28;20534;-45
2023/12/13 05:04:58;;;;;;;2.25;1.00;;;;;;;24.87;37.50;97841.06;4992971;28;20044;-45
2023/12/13 05:07:26;;;;;;;2.20;1.00;;;;;;;24.86;37.58;97837.56;4984951;28;20020;-44
2023/12/13 05:09:51;;;;;;;3.53;1.05;;;;;;;24.87;37.60;97841.06;4990452;28;20040;-43
2023/12/13 05:12:17;;;;;;;2.75;1.00;;;;;;;24.90;37.65;97837.25;4997070;28;20022;-45
2023/12/13 05:14:42;;;;;;;3.17;1.10;;;;;;;24.88;37.51;97842.56;4995408;28;20025;-44
2023/12/13 05:17:07;;;;;;;2.17;1.10;;;;;;;24.86;37.54;97828.53;4993797;28;20420;-43
2023/12/13 05:19:33;;;;;;;2.13;0.98;;;;;;;24.88;37.57;97823.25;4988250;28;20030;-44
2023/12/13 05:21:58;;;;;;;2.92;1.10;;;;;;;24.86;37.42;97829.28;4989369;28;20035;-43
2023/12/13 05:24:23;;;;;;;2.35;1.00;;;;;;;24.89;37.62;97827.47;4990072;28;20393;-45
2023/12/13 05:26:49;;;;;;;3.25;0.98;;;;;;;24.89;37.49;97824.72;4992158;28;20030;-43
2023/12/13 05:29:14;;;;;;;2.33;1.10;;;;;;;24.87;37.48;97819.72;4988975;28;20026;-46
2023/12/13 05:31:39;;;;;;;2.70;1.10;;;;;;;24.89;37.40;97814.41;4985457;28;20018;-45
2023/12/13 05:34:05;;;;;;;1.80;1.00;;;;;;;24.91;37.54;97813.88;4989242;28;20099;-43
2023/12/13 05:36:30;;;;;;;3.22;1.00;;;;;;;24.89;37.50;97811.66;4992495;28;20031;-45
2023/12/13 05:38:56;;;;;;;3.40;1.00;;;;;;;24.94;37.37;97816.34;4987654;28;20034;-44
2023/12/13 05:41:21;;;;;;;2.33;0.90;;;;;;;24.95;37.44;97801.28;4988700;28;20481;-45
2023/12/13 05:43:46;;;;;;;2.33;0.95;;;;;;;24.95;37.72;97812.31;4995460;28;20028;-43
2023/12/13 05:46:12;;;;;;;2.95;1.10;;;;;;;24.97;37.61;97804.25;4988454;28;20056;-46
2023/12/13 05:48:37;;;;;;;2.72;1.10;;;;;;;24.99;37.42;97800.91;4992857;28;20474;-42
2023/12/13 05:51:03;;;;;;;2.35;0.93;;;;;;;24.97;37.37;97809.75;4993628;28;20025;-46
2023/12/13 05:53:28;;;;;;;3.85;1.10;;;;;;;24.94;37.89;97810.84;4983939;28;20034;-42
2023/12/13 05:55:53;;;;;;;2.38;1.00;;;;;;;24.93;38.11;97801.03;4983018;28;20081;-45
2023/12/13 05:58:19;;;;;;;4.63;0.93;;;;;;;25.02;37.80;97797.09;4986902;28;20513;-45
2023/12/13 06:00:44;;;;;;;2.67;1.00;;;;;;;25.04;37.94;97797.28;4994959;28;20024;-41
2023/12/13 06:03:09;;;;;;;4.15;1.00;;;;;;;25.04;38.08;97792.50;4990744;28;20730;-42
2023/12/13 06:05:35;;;;;;;7.43;1.10;;;;;;;25.06;38.16;97789.97;4992682;28;20026;-44
2023/12/13 06:08:01;;;;;;;3.53;1.20;;;;;;;25.02;38.31;97789.53;4988614;28;20427;-46
2023/12/13 06:10:26;;;;;;;5.18;1.10;;;;;;;24.99;37.83;97798.91;4989600;28;20113;-44
2023/12/13 06:12:52;;;;;;;3.42;1.10;;;;;;;24.95;38.27;97793.00;4992972;28;20502;-44
2023/12/13 06:15:18;;;;;;;2.75;0.90;;;;;;;24.94;38.15;97793.50;4997649;28;20056;-48
2023/12/13 06:17:44;;;;;;;4.25;1.20;;;;;;;24.91;38.12;97795.31;4994252;28;20030;-46
2023/12/13 06:20:10;;;;;;;3.85;1.00;;;;;;;24.92;37.77;97799.56;4989217;28;20041;-46
2023/12/13 06:22:36;;;;;;;3.25;1.08;;;;;;;24.93;37.82;97811.34;4988828;28;20133;-43
2023/12/13 06:25:02;;;;;;;4.10;1.10;;;;;;;24.94;38.20;97799.03;4995867;28;20206;-45
2023/12/13 06:27:27;;;;;;;3.00;1.00;;;;;;;24.92;37.93;97804.34;4996064;28;20021;-47
2023/12/13 06:29:53;;;;;;;2.20;0.90;;;;;;;24.92;37.75;97796.78;4997168;28;20157;-47
2023/12/13 06:32:19;;;;;;;3.38;1.00;;;;;;;24.90;37.97;97799.34;4989721;28;20034;-50
2023/12/13 06:34:45;;;;;;;2.27;0.87;;;;;;;25.04;37.55;97787.00;4982724;28;20034;-43
2023/12/13 06:37:10;;;;;;;1.88;0.90;;;;;;;25.09;37.28;97792.91;4990653;28;20033;-46
2023/12/13 06:39:37;;;;;;;1.45;0.70;;;;;;;24.96;37.54;97791.72;4989565;28;20022;-48
2023/12/13 06:42:03;;;;;;;2.03;0.77;;;;;;;24.90;37.40;97788.31;4994552;28;20033;-47
2023/12/13 06:44:29;;;;;;;1.80;0.85;;;;;;;24.91;37.50;97778.00;4991723;28;20490;-48
2023/12/13 06:46:54;;;;;;;2.15;0.90;;;;;;;24.91;37.62;97784.28;4988688;28;20030;-50
2023/12/13 06:49:21;;;;;;;2.35;0.77;;;;;;;24.89;37.78;97778.53;4991320;28;20573;-47
2023/12/13 06:51:46;;;;;;;4.05;1.05;;;;;;;24.86;37.84;97779.63;4993646;28;20030;-47
2023/12/13 06:54:12;;;;;;;4.32;0.90;;;;;;;24.88;37.78;97779.81;4995749;28;20040;-46
2023/12/13 06:56:38;;;;;;;3.33;0.80;;;;;;;24.88;37.84;97782.59;4992906;28;20019;-44
2023/12/13 06:59:04;;;;;;;2.33;1.00;;;;;;;24.92;37.70;97785.00;4988359;28;20034;-44
2023/12/13 07:01:29;;;;;;;1.90;1.00;;;;;;;24.91;37.69;97784.28;4988383;28;20031;-43
2023/12/13 07:03:54;;;;;;;1.65;0.90;;;;;;;24.93;37.49;97781.72;4993742;28;20034;-46
2023/12/13 07:06:20;;;;;;;3.05;1.08;;;;;;;24.92;37.49;97790.53;4995385;28;20030;-45
2023/12/13 07:08:45;;;;;;;2.17;0.80;;;;;;;24.91;37.30;97789.78;5000111;28;20113;-48
2023/12/13 07:11:11;;;;;;;1.83;0.80;;;;;;;24.96;37.35;97793.75;4992049;28;20026;-46
2023/12/13 07:13:37;;;;;;;1.60;0.90;;;;;;;24.92;37.32;97788.50;4990057;28;20382;-48
2023/12/13 07:16:03;;;;;;;2.30;1.00;;;;;;;24.98;37.30;97794.66;4985704;28;20057;-48
2023/12/13 07:18:29;;;;;;;3.03;0.90;;;;;;;24.95;37.41;97793.00;4995308;28;20030;-44
2023/12/13 07:20:54;;;;;;;2.25;0.90;;;;;;;25.01;37.34;97793.59;5001714;28;20026;-49
2023/12/13 07:23:19;;;;;;;2.83;1.00;;;;;;;25.03;37.52;97793.78;4992489;28;20038;-48
2023/12/13 07:25:45;;;;;;;2.08;1.00;;;;;;;25.05;37.37;97788.47;4993876;28;20030;-48
2023/12/13 07:28:13;;;;;;;2.55;1.10;;;;;;;25.09;37.30;97776.34;4992185;28;20026;-46
2023/12/13 07:30:38;;;;;;;2.78;1.25;;;;;;;25.00;37.22;97792.09;4992948;28;20109;-46
2023/12/13 07:33:04;;;;;;;5.68;1.10;;;;;;;25.01;37.06;97779.78;4990233;28;20166;-46
2023/12/13 07:35:29;;;;;;;2.60;0.85;;;;;;;25.06;36.97;97778.91;4988095;28;20491;-49
2023/12/13 07:37:55;;;;;;;2.85;0.90;;;;;;;25.07;37.07;97779.66;4991663;28;20027;-49
2023/12/13 07:40:20;;;;;;;3.80;1.30;;;;;;;25.06;36.98;97773.41;4998610;28;20366;-46
2023/12/13 07:42:46;;;;;;;4.55;1.00;;;;;;;25.05;37.03;97774.66;4997368;28;20022;-46
2023/12/13 07:45:13;;;;;;;5.45;1.20;;;;;;;25.08;37.10;97780.41;4997135;28;20040;-47
2023/12/13 07:47:38;;;;;;;2.83;1.10;;;;;;;25.09;37.05;97773.59;4991517;28;20045;-46
2023/12/13 07:50:05;;;;;;;2.85;1.20;;;;;;;25.08;37.06;97777.63;4992267;28;20506;-49
2023/12/13 07:52:31;;;;;;;4.70;1.20;;;;;;;25.06;37.18;97778.91;4987407;28;20441;-47
2023/12/13 07:54:56;;;;;;;2.90;1.30;;;;;;;25.05;37.04;97782.94;4997365;28;20075;-48
2023/12/13 07:57:21;;;;;;;3.33;1.00;;;;;;;25.03;37.32;97774.47;4991211;28;20822;-47
2023/12/13 07:59:47;;;;;;;3.30;1.25;;;;;;;25.00;37.33;97781.06;4984606;28;20040;-49
2023/12/13 08:02:12;;;;;;;2.80;1.08;;;;;;;25.01;37.24;97782.53;4991767;28;20033;-49
2023/12/13 08:04:40;;;;;;;2.97;1.10;;;;;;;25.00;37.22;97786.59;4992030;28;20396;-47
2023/12/13 08:07:06;;;;;;;3.40;1.20;;;;;;;24.99;37.17;97787.84;4991842;28;20057;-46
2023/12/13 08:09:31;;;;;;;2.50;1.10;;;;;;;24.96;37.23;97797.25;4989947;28;20033;-47
2023/12/13 08:11:56;;;;;;;4.72;1.50;;;;;;;24.77;37.06;97802.16;4988185;28;20033;-46
2023/12/13 08:14:25;;;;;;;2.97;1.30;;;;;;;24.79;36.79;97804.38;4988763;28;20049;-48
2023/12/13 08:16:51;;;;;;;3.45;1.40;;;;;;;24.84;36.73;97809.03;4992969;28;20405;-47
2023/12/13 08:19:16;;;;;;;3.78;1.50;;;;;;;24.89;36.56;97808.16;5008235;28;20022;-46
2023/12/13 08:21:41;;;;;;;4.25;1.80;;;;;;;24.84;36.77;97800.75;4991593;28;20030;-47
2023/12/13 08:24:10;;;;;;;3.38;1.50;;;;;;;24.81;36.77;97802.56;4988861;28;20540;-47
2023/12/13 08:26:36;;;;;;;4.35;1.70;;;;;;;24.76;36.69;97800.69;4987291;28;20397;-46
2023/12/13 08:29:01;;;;;;;5.18;1.75;;;;;;;24.75;36.89;97799.19;4994352;28;20030;-49
2023/12/13 08:31:26;;;;;;;3.80;1.67;;;;;;;24.73;37.01;97799.00;4993927;28;20034;-46
2023/12/13 08:33:52;;;;;;;4.10;1.80;;;;;;;24.70;36.78;97791.78;4994133;28;20029;-46
2023/12/13 08:36:17;;;;;;;5.15;1.92;;;;;;;24.69;36.91;97804.84;4989466;28;20096;-45
2023/12/13 08:38:42;;;;;;;4.30;1.73;;;;;;;24.66;36.89;97802.41;4985300;28;20023;-46
2023/12/13 08:41:08;;;;;;;4.40;1.70;;;;;;;24.67;37.02;97803.88;4988812;28;20026;-48
2023/12/13 08:43:34;;;;;;;7.22;1.90;;;;;;;24.68;36.98;97805.38;4997234;28;20030;-47
2023/12/13 08:45:59;;;;;;;5.18;1.70;;;;;;;24.67;36.90;97799.09;4993214;28;20022;-47
2023/12/13 08:48:25;;;;;;;4.57;1.83;;;;;;;24.53;36.82;97799.69;5001743;28;20359;-47
2023/12/13 08:50:50;;;;;;;7.43;1.80;;;;;;;24.54;36.90;97803.94;4982789;28;20030;-49
2023/12/13 08:53:16;;;;;;;6.90;1.70;;;;;;;24.59;36.93;97792.00;4996149;28;20085;-49
2023/12/13 08:55:41;;;;;;;3.70;1.58;;;;;;;24.58;36.87;97793.31;4990268;28;20048;-46
2023/12/13 08:58:07;;;;;;;5.72;1.60;;;;;;;24.67;36.97;97792.84;4990809;28;20366;-47
2023/12/13 09:00:32;;;;;;;4.30;1.58;;;;;;;24.64;37.04;97788.41;4989035;28;20495;-45
2023/12/13 09:02:57;;;;;;;4.50;1.80;;;;;;;24.54;36.83;97790.88;4984813;28;20018;-49
2023/12/13 09:05:23;;;;;;;4.25;1.60;;;;;;;24.60;36.92;97787.97;4987165;28;20022;-47
2023/12/13 09:07:48;;;;;;;4.47;1.73;;;;;;;24.61;36.89;97792.22;4985268;28;20034;-47
2023/12/13 09:10:13;;;;;;;4.30;1.80;;;;;;;24.53;37.25;97796.94;4993643;28;20022;-47
2023/12/13 09:12:39;;;;;;;5.20;1.80;;;;;;;24.61;37.13;97797.75;4988862;28;20046;-47
2023/12/13 09:15:06;;;;;;;4.78;1.70;;;;;;;24.61;37.24;97794.97;4983698;28;20030;-43
2023/12/13 09:17:33;;;;;;;5.40;1.73;;;;;;;24.58;37.15;97794.03;4985798;28;20101;-44
2023/12/13 09:19:59;;;;;;;3.83;1.50;;;;;;;24.51;37.29;97791.94;4990170;28;20041;-43
2023/12/13 09:22:24;;;;;;;5.35;1.67;;;;;;;24.54;37.42;97803.94;4989343;28;20060;-43
2023/12/13 09:24:49;;;;;;;4.80;1.60;;;;;;;24.57;37.16;97805.63;4991322;28;20027;-46
2023/12/13 09:27:15;;;;;;;3.55;1.50;;;;;;;24.65;36.88;97806.44;4985540;28;20889;-44
2023/12/13 09:29:40;;;;;;;4.68;1.50;;;;;;;24.57;37.17;97802.88;4984172;28;20030;-43
2023/12/13 09:32:05;;;;;;;3.85;1.50;;;;;;;24.57;36.91;97806.38;4987645;28;20030;-44
2023/12/13 09:34:31;;;;;;;4.78;1.40;;;;;;;24.54;37.10;97812.22;4990273;28;20033;-43
2023/12/13 09:36:56;;;;;;;2.67;1.30;;;;;;;24.48;37.10;97811.56;4992519;28;20535;-44
2023/12/13 09:39:22;;;;;;;3.83;1.50;;;;;;;24.45;36.92;97799.59;4987217;28;20023;-44
2023/12/13 09:42:03;;;;;;;2.40;1.15;;;;;;;24.40;36.13;97805.97;4986838;28;20091;-44
2023/12/13 09:44:29;;;;;;;3.22;1.20;;;;;;;24.37;36.11;97799.53;4987095;28;20029;-45
2023/12/13 09:46:54;;;;;;;8.75;3.45;;;;;;;24.44;36.45;97811.91;4994469;28;20022;-42
2023/12/13 09:49:23;;;;;;;57.70;19.30;;;;;;;24.55;36.78;97802.66;4968980;28;20044;-46
2023/12/13 09:51:48;;;;;;;45.25;16.38;;;;;;;24.55;36.83;97799.91;4987494;28;20049;-46
2023/12/13 09:54:14;;;;;;;47.13;17.05;;;;;;;24.57;36.91;97806.38;4967981;28;20030;-47
2023/12/13 09:56:39;;;;;;;42.00;15.50;;;;;;;24.59;36.55;97803.03;4979435;28;20084;-45
2023/12/13 09:59:04;;;;;;;36.70;12.68;;;;;;;24.59;36.53;97808.56;4995531;28;20022;-47
2023/12/13 10:01:30;;;;;;;30.38;10.88;;;;;;;24.59;36.35;97803.78;4990809;28;20026;-46
2023/12/13 10:03:56;;;;;;;22.27;8.65;;;;;;;24.62;36.15;97794.44;4993263;28;20037;-45
2023/12/13 10:06:21;;;;;;;19.25;7.63;;;;;;;24.64;36.11;97800.19;4988962;28;20023;-44
2023/12/13 10:08:54;;;;;;;27.83;8.77;;;;;;;24.73;36.20;97790.72;4988598;28;20037;-45
2023/12/13 10:11:19;;;;;;;19.17;6.93;;;;;;;24.75;36.12;97792.94;4988077;28;20029;-43
2023/12/13 10:13:45;;;;;;;13.10;5.82;;;;;;;24.73;35.80;97793.47;4987431;28;20086;-46
2023/12/13 10:16:10;;;;;;;14.90;5.05;;;;;;;24.11;36.34;97787.75;4985519;28;20041;-45
2023/12/13 10:18:36;;;;;;;8.02;3.75;;;;;;;23.98;36.67;97785.75;4984445;28;20018;-42
2023/12/13 10:21:03;;;;;;;9.85;3.70;;;;;;;23.69;37.45;97793.78;4994916;28;20108;-46
2023/12/13 10:23:28;;;;;;;9.70;3.07;;;;;;;23.58;37.42;97793.97;4987078;28;20052;-45
2023/12/13 10:25:54;;;;;;;8.05;2.78;;;;;;;23.27;37.83;97792.00;4986456;28;20117;-46
2023/12/13 10:28:23;;;;;;;8.77;3.03;;;;;;;23.14;38.18;97789.97;4987554;28;20029;-47
2023/12/13 10:30:51;;;;;;;6.90;2.33;;;;;;;23.18;38.16;97786.91;4985847;28;20029;-41
2023/12/13 10:33:16;;;;;;;6.85;2.00;;;;;;;22.85;38.33;97780.66;4986392;28;20034;-44
2023/12/13 10:35:42;;;;;;;6.00;2.13;;;;;;;23.23;38.17;97789.56;4985546;28;20092;-44
2023/12/13 10:38:10;;;;;;;6.85;2.33;;;;;;;23.23;38.21;97789.56;4991696;28;20101;-43
2023/12/13 10:40:35;;;;;;;8.32;2.67;;;;;;;23.08;38.47;97786.56;4986811;28;20533;-46
2023/12/13 10:43:01;;;;;;;5.30;2.03;;;;;;;23.05;38.28;97781.34;4983768;28;20035;-46
2023/12/13 10:45:26;;;;;;;5.32;1.88;;;;;;;22.85;38.73;97786.16;4984371;28;20077;-45
2023/12/13 10:47:55;;;;;;;5.47;1.95;;;;;;;22.94;38.55;97780.28;4986663;28;20049;-48
2023/12/13 10:50:22;;;;;;;4.80;1.70;;;;;;;22.86;38.80;97782.13;4969878;28;20021;-50
2023/12/13 10:52:47;;;;;;;4.82;1.98;;;;;;;23.00;38.68;97777.41;4975578;28;20101;-49
2023/12/13 10:55:14;;;;;;;4.60;1.80;;;;;;;22.95;38.62;97778.25;4976076;28;20081;-47
2023/12/13 10:57:40;;;;;;;5.53;1.70;;;;;;;22.88;38.39;97774.09;4987377;28;20109;-50
2023/12/13 11:00:06;;;;;;;3.70;1.52;;;;;;;22.87;38.71;97775.38;4991347;28;20027;-55
2023/12/13 11:02:50;;;;;;;4.30;1.60;;;;;;;23.05;38.82;97770.34;4989130;28;20062;-46
2023/12/13 11:05:16;;;;;;;5.03;1.90;;;;;;;23.08;38.74;97766.53;4978965;28;20073;-46
2023/12/13 11:07:43;;;;;;;5.43;1.70;;;;;;;23.03;38.96;97768.84;4967799;28;20034;-54
2023/12/13 11:10:09;;;;;;;4.68;1.70;;;;;;;23.02;39.44;97772.88;4989116;28;20097;-51
2023/12/13 11:12:45;;;;;;;3.70;1.73;;;;;;;22.89;39.10;97769.34;4992097;28;20041;-52
2023/12/13 11:15:14;;;;;;;3.92;1.75;;;;;;;22.40;39.61;97763.25;4371891;28;10001499;-50
2023/12/13 11:17:40;;;;;;;4.45;1.77;;;;;;;22.73;39.90;97762.81;4642324;28;10000370;-50
2023/12/13 11:20:09;;;;;;;4.28;1.50;;;;;;;22.49;39.54;97768.41;4969657;28;20043;-51
2023/12/13 11:22:35;;;;;;;4.18;1.58;;;;;;;21.99;39.83;97756.75;4986022;28;20061;-48
2023/12/13 11:25:06;;;;;;;3.97;1.40;;;;;;;22.67;40.00;97760.13;4986200;28;20018;-42